Time;durP1;ratioP1;P1;durP2;ratioP2;P2;SDS_P1;SDS_P2;PMS_P1;PMS_P2;Temp;Humidity;BMP_temperature;BMP_pressure;BME280_temperature;BME280_humidity;BME280_pressure;Samples;Min_cycle;Max_cycle;Signal;HPM_P1;HPM_P2
2022/01/18 00:02:11;;;;;;;2.10;1.90;;;;;;;4.89;100.00;100160.03;5090799;28;20194;-75
2022/01/18 00:04:38;;;;;;;1.80;1.70;;;;;;;4.79;100.00;100194.78;5083707;28;20665;-77
2022/01/18 00:07:05;;;;;;;1.77;1.50;;;;;;;4.64;100.00;100193.31;5088503;28;20227;-76
2022/01/18 00:09:37;;;;;;;2.03;1.90;;;;;;;4.56;100.00;100202.38;5087251;28;20224;-76
2022/01/18 00:12:28;;;;;;;2.10;1.30;;;;;;;4.46;100.00;100204.56;5090756;28;20200;-76
2022/01/18 00:15:16;;;;;;;1.30;1.30;;;;;;;4.41;100.00;100200.94;5088543;28;20194;-76
2022/01/18 00:17:53;;;;;;;1.47;1.43;;;;;;;4.38;100.00;100226.50;5077018;28;20200;-76
2022/01/18 00:20:29;;;;;;;2.27;1.60;;;;;;;4.36;100.00;100238.38;5076694;28;20701;-76
2022/01/18 00:22:56;;;;;;;2.30;2.07;;;;;;;4.31;100.00;100246.72;5076383;28;20251;-76
2022/01/18 00:25:23;;;;;;;4.27;2.83;;;;;;;4.34;100.00;100262.22;5089238;28;20190;-76
2022/01/18 00:27:49;;;;;;;2.27;2.17;;;;;;;4.34;100.00;100268.25;5076542;28;20195;-75
2022/01/18 00:30:35;;;;;;;2.30;1.87;;;;;;;4.23;100.00;100274.59;5072526;28;20190;-77
2022/01/18 00:33:15;;;;;;;5.03;2.70;;;;;;;4.32;100.00;100294.63;5072335;28;20198;-76
2022/01/18 00:35:45;;;;;;;2.97;2.13;;;;;;;4.28;100.00;100309.03;5073350;28;20205;-76
2022/01/18 00:38:16;;;;;;;4.60;3.20;;;;;;;4.24;100.00;100313.97;5072551;28;20223;-76
2022/01/18 00:40:44;;;;;;;2.23;2.03;;;;;;;4.13;100.00;100304.94;5071925;28;20294;-76
2022/01/18 00:43:11;;;;;;;2.53;2.00;;;;;;;4.09;100.00;100319.31;5077291;28;20201;-76
2022/01/18 00:45:37;;;;;;;2.43;1.83;;;;;;;4.05;100.00;100335.38;5091886;28;20190;-78
2022/01/18 00:48:06;;;;;;;3.77;2.57;;;;;;;3.95;100.00;100352.03;5075205;28;20193;-76
2022/01/18 00:50:34;;;;;;;2.73;2.17;;;;;;;3.92;100.00;100368.97;5090102;28;20186;-77
2022/01/18 00:53:05;;;;;;;2.30;1.63;;;;;;;3.79;100.00;100379.47;5087419;28;20194;-76
2022/01/18 00:55:36;;;;;;;2.97;2.73;;;;;;;3.75;100.00;100368.19;5071502;28;20195;-76
2022/01/18 00:58:02;;;;;;;1.70;1.60;;;;;;;3.83;100.00;100387.38;5072421;28;20200;-76
2022/01/18 01:00:29;;;;;;;1.63;1.53;;;;;;;3.85;100.00;100364.38;5072103;28;20214;-76
2022/01/18 01:02:56;;;;;;;1.60;1.50;;;;;;;3.76;100.00;100393.03;5074561;28;20201;-76
2022/01/18 01:05:24;;;;;;;1.73;1.63;;;;;;;3.68;100.00;100390.91;5090162;28;20683;-77
2022/01/18 01:07:51;;;;;;;1.10;1.10;;;;;;;3.69;89.12;100402.94;5092760;28;20198;-77
2022/01/18 01:10:18;;;;;;;1.27;1.27;;;;;;;3.76;84.71;100407.53;5092294;28;20232;-76
2022/01/18 01:12:45;;;;;;;1.57;1.27;;;;;;;3.77;80.49;100409.28;5090342;28;20194;-75
2022/01/18 01:15:14;;;;;;;1.10;1.10;;;;;;;3.70;78.00;100414.94;5082566;28;20206;-76
2022/01/18 01:17:47;;;;;;;1.77;1.60;;;;;;;3.71;74.38;100421.84;5077167;28;20191;-76
2022/01/18 01:34:15;;;;;;;1.00;1.00;;;;;;;3.73;65.87;100454.44;5081705;28;20225;-76
2022/01/18 01:37:00;;;;;;;1.20;1.10;;;;;;;3.69;66.18;100454.19;5071813;28;20186;-75
2022/01/18 01:42:30;;;;;;;2.37;1.53;;;;;;;3.45;70.11;100459.91;5081436;28;20263;-75
2022/01/18 01:44:58;;;;;;;1.20;1.20;;;;;;;3.39;69.78;100476.66;5075364;28;20204;-76
2022/01/18 01:47:34;;;;;;;1.03;1.03;;;;;;;3.46;68.75;100476.19;5090656;28;20225;-75
2022/01/18 01:50:02;;;;;;;1.20;1.20;;;;;;;3.38;69.56;100483.47;5087104;28;20593;-76
2022/01/18 01:52:28;;;;;;;7.20;2.53;;;;;;;2.92;70.04;100384.66;5091517;28;20216;-75
2022/01/18 01:54:57;;;;;;;1.40;1.40;;;;;;;3.26;70.57;100477.72;5072395;28;20202;-75
2022/01/18 01:57:25;;;;;;;2.50;1.70;;;;;;;3.18;71.37;100479.03;5083975;28;20205;-75
2022/01/18 01:59:52;;;;;;;1.90;1.50;;;;;;;3.21;71.29;100491.13;5089483;28;20202;-75
2022/01/18 02:02:19;;;;;;;1.20;1.20;;;;;;;3.19;72.04;100485.91;5072466;28;20645;-76
2022/01/18 02:04:46;;;;;;;3.87;1.80;;;;;;;3.14;73.21;100495.03;5085267;28;20199;-75
2022/01/18 02:07:13;;;;;;;1.30;1.30;;;;;;;3.03;73.38;100498.75;5091645;28;20712;-76
2022/01/18 02:09:39;;;;;;;1.40;1.23;;;;;;;2.94;72.28;100501.72;5091603;28;20240;-76
2022/01/18 02:12:10;;;;;;;2.63;1.50;;;;;;;2.98;72.41;100507.88;5093697;28;20609;-76
2022/01/18 02:14:39;;;;;;;2.63;1.50;;;;;;;2.96;71.65;100522.28;5079173;28;20202;-75
2022/01/18 02:22:36;;;;;;;1.73;1.10;;;;;;;2.94;70.92;100529.88;5089236;28;20264;-75
2022/01/18 02:25:04;;;;;;;0.90;0.90;;;;;;;2.93;70.66;100540.91;5076790;28;20191;-75
2022/01/18 02:27:31;;;;;;;1.00;1.00;;;;;;;2.90;69.93;100532.19;5093662;28;20267;-75
2022/01/18 02:29:57;;;;;;;1.20;1.10;;;;;;;2.55;71.12;100519.22;5085621;28;20628;-75
2022/01/18 02:32:24;;;;;;;1.50;1.40;;;;;;;2.48;73.03;100500.97;5088452;28;20197;-75
2022/01/18 02:34:51;;;;;;;1.00;1.00;;;;;;;2.62;72.05;100546.91;5091205;28;20194;-75
2022/01/18 02:37:18;;;;;;;1.30;1.30;;;;;;;2.64;71.20;100542.75;5093085;28;20216;-76
2022/01/18 02:39:46;;;;;;;1.17;1.17;;;;;;;2.54;71.16;100532.81;5083274;28;20191;-76
2022/01/18 02:42:15;;;;;;;1.93;1.80;;;;;;;2.56;69.88;100555.16;5082880;28;20199;-75
2022/01/18 02:44:43;;;;;;;2.00;1.40;;;;;;;2.67;70.11;100555.72;5089698;28;20244;-75
2022/01/18 02:47:10;;;;;;;2.70;1.40;;;;;;;2.69;70.88;100569.47;5093399;28;20234;-75
2022/01/18 02:49:37;;;;;;;3.00;1.53;;;;;;;2.61;71.56;100560.47;5079355;28;20218;-76
2022/01/18 02:52:04;;;;;;;1.10;1.10;;;;;;;2.71;72.15;100575.56;5073994;28;20191;-76
2022/01/18 02:54:31;;;;;;;1.20;1.10;;;;;;;2.64;72.48;100582.00;5088055;28;20198;-76
2022/01/18 02:57:02;;;;;;;3.33;1.73;;;;;;;2.62;72.43;100590.41;5094303;28;20239;-76
2022/01/18 02:59:34;;;;;;;1.70;1.60;;;;;;;2.69;72.88;100592.50;5092179;28;20288;-76
2022/01/18 03:04:47;;;;;;;1.50;1.40;;;;;;;2.22;80.73;100587.31;5073518;28;20209;-76
2022/01/18 03:07:15;;;;;;;2.87;2.17;;;;;;;2.18;92.70;100586.28;5075079;28;20613;-76
2022/01/18 03:09:43;;;;;;;2.00;1.90;;;;;;;2.12;100.00;100591.06;5088880;28;20229;-76
2022/01/18 03:12:12;;;;;;;2.43;1.87;;;;;;;2.05;100.00;100588.94;5077808;28;20198;-76
2022/01/18 03:14:40;;;;;;;1.80;1.70;;;;;;;2.08;100.00;100594.22;5085980;28;20198;-76
2022/01/18 03:17:07;;;;;;;1.87;1.73;;;;;;;2.04;100.00;100586.28;5092399;28;20278;-75
2022/01/18 03:19:35;;;;;;;1.90;1.80;;;;;;;1.80;100.00;100602.00;5086939;28;20598;-75
2022/01/18 03:22:01;;;;;;;3.37;2.07;;;;;;;1.81;100.00;100600.34;5090722;28;20190;-75
2022/01/18 03:30:06;;;;;;;3.33;1.97;;;;;;;1.80;100.00;100624.13;5093250;28;20237;-76
2022/01/18 03:32:33;;;;;;;1.30;1.30;;;;;;;1.69;100.00;100638.84;5086445;28;20195;-75
2022/01/18 03:35:00;;;;;;;2.20;1.70;;;;;;;1.75;100.00;100649.41;5074413;28;20579;-76
2022/01/18 03:37:27;;;;;;;1.40;1.30;;;;;;;1.73;100.00;100650.13;5093141;28;20684;-76
2022/01/18 03:39:53;;;;;;;2.97;1.60;;;;;;;1.71;100.00;100651.72;5093405;28;20619;-75
2022/01/18 03:42:37;;;;;;;2.40;1.70;;;;;;;1.49;100.00;100665.78;5088350;28;20252;-76
2022/01/18 03:45:07;;;;;;;1.60;1.50;;;;;;;1.49;100.00;100670.88;5089662;28;20198;-76
2022/01/18 03:47:35;;;;;;;2.70;1.80;;;;;;;1.49;100.00;100670.88;5084916;28;20605;-76
2022/01/18 03:50:04;;;;;;;2.43;1.77;;;;;;;1.45;100.00;100680.81;5088603;28;20218;-78
2022/01/18 03:52:31;;;;;;;1.50;1.40;;;;;;;1.56;100.00;100699.34;5074488;28;20256;-75
2022/01/18 03:54:58;;;;;;;1.37;1.30;;;;;;;1.62;100.00;100712.50;5074155;28;20191;-77
2022/01/18 03:57:26;;;;;;;2.10;1.57;;;;;;;1.63;100.00;100714.28;5083043;28;20635;-76
2022/01/18 03:59:52;;;;;;;2.27;1.60;;;;;;;1.71;100.00;100718.19;5077599;28;20191;-76
2022/01/18 04:02:19;;;;;;;1.77;1.67;;;;;;;1.68;100.00;100708.63;5077093;28;20627;-75
2022/01/18 04:04:46;;;;;;;1.67;1.57;;;;;;;1.62;98.56;100713.38;5075398;28;20197;-76
2022/01/18 04:07:13;;;;;;;2.57;2.20;;;;;;;1.59;98.85;100713.19;5073454;28;20301;-76
2022/01/18 04:09:40;;;;;;;3.47;2.90;;;;;;;1.56;97.98;100712.13;5086995;28;20214;-76
2022/01/18 04:12:08;;;;;;;2.73;2.13;;;;;;;1.63;97.22;100724.50;5074671;28;20251;-76
2022/01/18 04:14:36;;;;;;;2.03;1.80;;;;;;;1.71;94.67;100728.41;5092400;28;20631;-76
2022/01/18 04:17:10;;;;;;;3.20;2.60;;;;;;;1.73;92.60;100744.69;5090234;28;20677;-76
2022/01/18 04:27:59;;;;;;;2.40;1.70;;;;;;;1.55;93.59;100766.56;5082934;28;20250;-76
2022/01/18 04:30:27;;;;;;;2.07;1.93;;;;;;;1.40;92.92;100754.63;5091153;28;20325;-75
2022/01/18 04:32:54;;;;;;;3.13;1.63;;;;;;;1.55;92.01;100787.00;5084247;28;20582;-76
2022/01/18 04:35:21;;;;;;;2.47;1.97;;;;;;;1.47;93.37;100791.66;5075896;28;20201;-76
2022/01/18 04:37:48;;;;;;;2.37;2.10;;;;;;;1.21;91.93;100744.06;5088610;28;20191;-76
2022/01/18 04:40:17;;;;;;;2.17;1.67;;;;;;;1.47;91.23;100789.97;5073526;28;20191;-75
2022/01/18 04:43:02;;;;;;;3.17;2.20;;;;;;;1.26;91.29;100763.09;5078977;28;20194;-77
2022/01/18 04:48:27;;;;;;;1.97;1.83;;;;;;;1.48;88.29;100814.75;5071434;28;20700;-77
2022/01/18 04:50:54;;;;;;;2.37;1.50;;;;;;;1.42;88.05;100808.38;5084370;28;20308;-75
2022/01/18 04:53:21;;;;;;;1.77;1.67;;;;;;;1.46;86.31;100818.88;5080695;28;20191;-75
2022/01/18 04:55:53;;;;;;;1.83;1.73;;;;;;;1.55;85.27;100823.69;5092372;28;20206;-74
2022/01/18 04:58:19;;;;;;;2.50;2.23;;;;;;;1.56;84.86;100839.91;5091454;28;20187;-75
2022/01/18 05:00:49;;;;;;;3.20;2.50;;;;;;;1.47;83.87;100838.53;5092803;28;20232;-74
2022/01/18 05:03:16;;;;;;;2.40;2.30;;;;;;;1.43;84.22;100859.56;5098682;28;20193;-76
2022/01/18 05:05:43;;;;;;;2.43;1.77;;;;;;;1.56;83.50;100881.66;5094112;28;20194;-76
2022/01/18 05:08:13;;;;;;;1.97;1.87;;;;;;;1.47;83.77;100868.28;5101553;28;20210;-75
2022/01/18 05:10:41;;;;;;;1.67;1.57;;;;;;;1.51;83.96;100903.47;5097029;28;20282;-75
2022/01/18 05:13:14;;;;;;;2.70;1.70;;;;;;;1.34;84.87;100892.19;5095912;28;20597;-75
2022/01/18 05:15:46;;;;;;;1.90;1.80;;;;;;;1.56;85.95;100921.66;5101645;28;20202;-75
2022/01/18 05:21:11;;;;;;;2.23;2.03;;;;;;;1.21;85.95;100894.75;5090241;28;20213;-75
2022/01/18 05:23:38;;;;;;;5.20;1.80;;;;;;;1.43;86.05;100930.19;5083950;28;20198;-75
2022/01/18 05:26:05;;;;;;;2.83;2.53;;;;;;;1.42;85.03;100906.34;5093473;28;20250;-75
2022/01/18 05:28:32;;;;;;;2.30;1.80;;;;;;;1.64;83.54;100930.72;5100721;28;20185;-75
2022/01/18 05:30:59;;;;;;;1.90;1.43;;;;;;;1.58;83.13;100928.63;5096168;28;20582;-77
2022/01/18 05:33:27;;;;;;;1.90;1.80;;;;;;;1.48;84.63;100932.28;5100314;28;20193;-74
2022/01/18 05:35:54;;;;;;;7.07;2.23;;;;;;;1.57;84.96;100946.44;5099764;28;20194;-76
2022/01/18 05:38:21;;;;;;;5.73;2.20;;;;;;;1.52;84.86;100956.38;5093274;28;20205;-76
2022/01/18 05:40:49;;;;;;;2.07;1.60;;;;;;;1.59;84.54;100965.31;5097615;28;20637;-75
2022/01/18 05:43:16;;;;;;;4.93;1.60;;;;;;;1.47;85.12;100967.94;5100558;28;20222;-75
2022/01/18 05:45:43;;;;;;;1.60;1.60;;;;;;;1.55;85.86;100991.44;5101579;28;20193;-76
2022/01/18 05:48:10;;;;;;;1.43;1.33;;;;;;;1.55;87.40;100999.09;5101449;28;20203;-76
2022/01/18 05:50:38;;;;;;;1.90;1.80;;;;;;;1.43;89.05;100997.53;5102856;28;20349;-76
2022/01/18 05:53:04;;;;;;;8.90;2.17;;;;;;;1.33;89.42;101005.38;5101340;28;20189;-77
2022/01/18 05:55:32;;;;;;;6.70;1.60;;;;;;;1.38;89.24;101014.22;5103570;28;20182;-76
2022/01/18 05:57:59;;;;;;;6.27;2.00;;;;;;;1.05;89.42;100981.34;5102114;28;20201;-76
2022/01/18 06:00:27;;;;;;;10.53;5.50;;;;;;;1.26;89.77;101015.97;5099564;28;20234;-79
2022/01/18 06:03:11;;;;;;;4.67;2.77;;;;;;;1.14;89.73;100992.16;5106314;28;20194;-77
2022/01/18 06:08:23;;;;;;;2.60;2.40;;;;;;;1.30;91.10;101010.28;5093442;28;20194;-76
2022/01/18 06:10:50;;;;;;;5.07;2.93;;;;;;;1.38;90.96;101014.22;5087003;28;20233;-76
2022/01/18 06:13:17;;;;;;;4.57;2.53;;;;;;;1.32;92.04;101025.72;5082229;28;20198;-76
2022/01/18 06:15:44;;;;;;;6.73;2.67;;;;;;;1.25;92.74;101015.88;5104970;28;20186;-76
2022/01/18 06:18:12;;;;;;;6.97;3.20;;;;;;;1.31;92.05;101032.50;5093378;28;20290;-76
2022/01/18 06:20:42;;;;;;;9.60;5.07;;;;;;;1.16;92.83;101026.34;5074703;28;20610;-76
2022/01/18 06:23:10;;;;;;;4.73;3.20;;;;;;;1.33;94.06;101036.03;5076161;28;20194;-78
2022/01/18 06:25:37;;;;;;;7.03;3.40;;;;;;;1.22;94.83;101031.88;5093622;28;20198;-77
2022/01/18 06:28:04;;;;;;;2.20;2.00;;;;;;;1.09;95.79;100998.63;5095054;28;20209;-80
2022/01/18 06:30:31;;;;;;;4.20;2.90;;;;;;;1.24;96.84;101019.22;5095366;28;20238;-77
2022/01/18 06:32:58;;;;;;;4.27;3.00;;;;;;;1.19;98.22;101025.66;5093131;28;20190;-74
2022/01/18 06:35:24;;;;;;;3.23;2.23;;;;;;;1.26;100.00;101031.28;5094851;28;20198;-77
2022/01/18 06:37:53;;;;;;;5.10;2.70;;;;;;;0.82;100.00;100978.91;5095434;28;20247;-78
2022/01/18 06:40:20;;;;;;;4.07;3.33;;;;;;;1.11;100.00;101048.13;5094970;28;20202;-77
2022/01/18 06:42:47;;;;;;;4.40;2.93;;;;;;;1.21;100.00;101036.88;5080820;28;20203;-77
2022/01/18 06:45:15;;;;;;;7.90;3.93;;;;;;;1.02;100.00;101049.19;5093842;28;20300;-76
2022/01/18 06:47:42;;;;;;;4.60;2.63;;;;;;;1.17;100.00;101050.22;5093416;28;20194;-76
2022/01/18 06:50:11;;;;;;;3.33;2.67;;;;;;;1.14;100.00;101045.78;5093970;28;20218;-77
2022/01/18 06:52:38;;;;;;;4.10;2.60;;;;;;;1.15;100.00;101055.22;5089819;28;20286;-77
2022/01/18 06:55:08;;;;;;;2.70;2.50;;;;;;;1.01;100.00;101025.31;5093799;28;20209;-77
2022/01/18 06:57:35;;;;;;;2.67;2.20;;;;;;;1.23;100.00;101066.84;5093855;28;20259;-77
2022/01/18 07:00:03;;;;;;;7.63;3.17;;;;;;;1.13;100.00;101041.47;5093445;28;20190;-77
2022/01/18 07:02:30;;;;;;;2.97;2.67;;;;;;;1.18;100.00;101075.84;5094317;28;20211;-77
2022/01/18 07:04:57;;;;;;;2.33;2.13;;;;;;;1.37;100.00;101078.88;5093309;28;20664;-77
2022/01/18 07:07:24;;;;;;;3.80;2.03;;;;;;;1.39;100.00;101067.06;5087875;28;20222;-76
2022/01/18 07:09:51;;;;;;;2.10;1.97;;;;;;;1.34;100.00;101052.25;5094085;28;20202;-77
2022/01/18 07:12:19;;;;;;;2.57;2.37;;;;;;;1.57;100.00;101061.44;5093863;28;20206;-77
2022/01/18 07:14:46;;;;;;;2.20;2.03;;;;;;;1.54;100.00;101061.22;5093104;28;20680;-78
2022/01/18 07:17:13;;;;;;;1.87;1.73;;;;;;;1.69;100.00;101062.22;5093220;28;20216;-77
2022/01/18 07:19:40;;;;;;;3.33;2.47;;;;;;;1.65;100.00;101067.94;5093909;28;20222;-77
2022/01/18 07:22:06;;;;;;;5.03;2.60;;;;;;;1.67;100.00;101058.69;5093211;28;20194;-76
2022/01/18 07:24:39;;;;;;;4.63;3.07;;;;;;;1.87;98.47;101055.75;5093545;28;20202;-75
2022/01/18 07:27:07;;;;;;;4.97;2.50;;;;;;;1.87;96.52;101035.31;5092912;28;20288;-76
2022/01/18 07:29:36;;;;;;;5.80;3.20;;;;;;;1.75;95.60;101017.50;5087088;28;20198;-76
2022/01/18 07:32:03;;;;;;;7.30;2.13;;;;;;;1.99;92.62;101061.69;5085969;28;20222;-76
2022/01/18 07:34:31;;;;;;;2.07;1.93;;;;;;;2.06;91.88;101068.06;5093566;28;20685;-76
2022/01/18 07:36:58;;;;;;;4.20;2.30;;;;;;;2.23;90.19;101065.81;5092802;28;20198;-78
2022/01/18 07:39:25;;;;;;;2.87;2.17;;;;;;;1.93;87.51;100982.00;5093116;28;20217;-79
2022/01/18 07:41:52;;;;;;;3.30;2.00;;;;;;;2.40;84.83;101070.31;5093286;28;20198;-77
2022/01/18 07:44:19;;;;;;;6.40;2.50;;;;;;;2.40;84.13;101070.31;5092833;28;20198;-78
2022/01/18 07:46:47;;;;;;;3.20;2.20;;;;;;;2.11;83.84;101002.72;5092933;28;20603;-77
2022/01/18 07:49:14;;;;;;;2.60;1.77;;;;;;;2.60;82.51;101081.81;5091961;28;20209;-78
2022/01/18 07:51:41;;;;;;;1.80;1.70;;;;;;;2.65;82.39;101087.19;5092435;28;20226;-80
2022/01/18 07:54:07;;;;;;;2.13;1.57;;;;;;;2.54;81.85;101058.38;5089537;28;20194;-80
2022/01/18 07:56:34;;;;;;;3.37;2.53;;;;;;;2.34;82.88;101038.34;5092087;28;20696;-79
2022/01/18 07:59:01;;;;;;;4.00;2.33;;;;;;;2.70;82.57;101081.59;5092335;28;20186;-81
2022/01/18 08:01:28;;;;;;;11.27;4.37;;;;;;;2.69;81.90;101081.47;5086184;28;20199;-80
2022/01/18 08:03:56;;;;;;;7.60;3.50;;;;;;;2.68;81.76;101092.50;5093009;28;20205;-78
2022/01/18 08:06:23;;;;;;;3.27;2.27;;;;;;;2.67;82.03;101089.09;5092582;28;20750;-80
2022/01/18 08:08:50;;;;;;;6.70;3.80;;;;;;;2.83;82.48;101093.47;5093181;28;20669;-80
2022/01/18 08:11:17;;;;;;;4.83;2.70;;;;;;;2.83;82.54;101091.78;5093345;28;20740;-80
2022/01/18 08:13:47;;;;;;;4.23;2.73;;;;;;;2.61;82.26;101034.03;5086997;28;20194;-79
2022/01/18 08:16:45;;;;;;;2.80;2.60;;;;;;;2.85;80.11;101090.19;5092649;28;20202;-82
2022/01/18 08:19:12;;;;;;;5.27;3.57;;;;;;;2.90;78.52;101095.59;5091431;28;20220;-80
2022/01/18 08:21:39;;;;;;;7.40;3.23;;;;;;;3.01;77.36;101102.28;5092348;28;20194;-78
2022/01/18 08:24:06;;;;;;;3.23;2.23;;;;;;;2.79;75.41;101086.38;5092951;28;20190;-77
2022/01/18 08:26:33;;;;;;;4.40;2.27;;;;;;;3.01;74.55;101115.06;5092852;28;20212;-78
2022/01/18 08:29:00;;;;;;;12.67;3.97;;;;;;;3.04;74.31;101115.25;5091895;28;20187;-78
2022/01/18 08:31:27;;;;;;;11.10;3.67;;;;;;;2.97;75.71;101093.50;5083910;28;20257;-76
2022/01/18 08:33:53;;;;;;;10.23;4.60;;;;;;;3.28;76.74;101126.13;5092150;28;20202;-78
2022/01/18 08:36:22;;;;;;;3.33;1.90;;;;;;;3.18;76.86;101104.19;5092191;28;20194;-78
2022/01/18 08:38:49;;;;;;;4.90;3.20;;;;;;;3.28;76.00;101110.75;5093004;28;20583;-79
2022/01/18 08:41:17;;;;;;;10.97;4.43;;;;;;;3.30;74.59;101120.31;5092591;28;20201;-77
2022/01/18 08:43:44;;;;;;;10.33;5.07;;;;;;;3.15;72.77;101093.75;5092694;28;20195;-77
2022/01/18 08:46:10;;;;;;;9.17;5.37;;;;;;;3.29;72.88;101110.84;5092374;28;20193;-78
2022/01/18 08:48:37;;;;;;;8.27;3.67;;;;;;;3.30;72.88;101099.81;5091532;28;20222;-78
2022/01/18 08:51:05;;;;;;;6.20;3.47;;;;;;;3.36;72.32;101107.84;5091692;28;20688;-79
2022/01/18 08:53:33;;;;;;;11.07;5.03;;;;;;;3.45;71.61;101090.47;5091887;28;20202;-78
2022/01/18 08:56:00;;;;;;;6.27;2.70;;;;;;;3.41;70.72;101103.00;5092012;28;20201;-78
2022/01/18 08:58:27;;;;;;;7.10;3.23;;;;;;;3.44;70.81;101111.75;5091936;28;20205;-78
2022/01/18 09:00:54;;;;;;;4.60;2.93;;;;;;;3.49;70.03;101106.91;5091651;28;20258;-78
2022/01/18 09:03:21;;;;;;;2.53;1.90;;;;;;;3.45;69.92;101089.59;5091557;28;20198;-77
2022/01/18 09:05:48;;;;;;;2.37;2.07;;;;;;;3.50;70.00;101099.28;5090824;28;20257;-77
2022/01/18 09:08:17;;;;;;;5.10;2.37;;;;;;;3.44;69.95;101088.69;5091182;28;20257;-78
2022/01/18 09:10:47;;;;;;;3.20;2.93;;;;;;;3.61;68.93;101086.22;5090945;28;20309;-78
2022/01/18 09:13:14;;;;;;;4.83;2.23;;;;;;;3.64;68.89;101094.13;5091347;28;20198;-77
2022/01/18 09:15:41;;;;;;;5.33;2.77;;;;;;;3.68;69.33;101071.28;5090323;28;20198;-77
2022/01/18 09:18:08;;;;;;;7.50;4.40;;;;;;;3.79;69.33;101084.72;5090362;28;20198;-76
2022/01/18 09:20:35;;;;;;;2.07;1.97;;;;;;;3.81;69.10;101093.41;5090786;28;20220;-77
2022/01/18 09:23:02;;;;;;;3.47;2.70;;;;;;;3.92;67.94;101089.78;5091721;28;20646;-77
2022/01/18 09:25:30;;;;;;;3.90;2.50;;;;;;;3.99;67.72;101081.66;5091877;28;20190;-76
2022/01/18 09:27:59;;;;;;;2.87;2.50;;;;;;;3.98;68.54;101067.03;5091621;28;20190;-76
2022/01/18 09:30:27;;;;;;;3.87;2.53;;;;;;;3.88;66.77;101055.38;5091780;28;20198;-76
2022/01/18 09:32:55;;;;;;;4.77;2.13;;;;;;;3.88;66.06;101047.69;5091487;28;20225;-73
2022/01/18 09:35:23;;;;;;;3.03;2.40;;;;;;;3.96;65.80;101058.34;5091728;28;20198;-74
2022/01/18 09:37:50;;;;;;;7.40;3.57;;;;;;;4.04;66.34;101053.66;5085137;28;20198;-74
2022/01/18 09:40:19;;;;;;;3.77;2.83;;;;;;;4.06;67.12;101032.44;5091782;28;20611;-73
2022/01/18 09:42:46;;;;;;;4.97;3.47;;;;;;;4.07;67.12;101008.53;5091418;28;20209;-73
2022/01/18 09:45:16;;;;;;;2.30;2.17;;;;;;;4.15;67.36;101035.50;5091368;28;20190;-74
2022/01/18 09:47:45;;;;;;;4.93;2.97;;;;;;;4.23;66.12;101038.50;5090678;28;20194;-73
2022/01/18 09:50:14;;;;;;;5.73;2.30;;;;;;;4.08;66.00;101028.25;5091459;28;20201;-74
2022/01/18 09:52:41;;;;;;;3.43;2.73;;;;;;;4.26;66.97;101049.81;5091104;28;20230;-74
2022/01/18 09:55:09;;;;;;;9.13;4.60;;;;;;;4.35;66.76;101041.75;5091357;28;20201;-74
2022/01/18 09:57:36;;;;;;;9.50;4.73;;;;;;;4.37;66.34;101030.75;5091635;28;20294;-74
2022/01/18 10:00:04;;;;;;;6.53;4.17;;;;;;;4.34;65.60;101030.59;5090723;28;20572;-74
2022/01/18 10:02:33;;;;;;;4.63;3.10;;;;;;;4.37;65.30;101041.03;5091113;28;20201;-74
2022/01/18 10:05:00;;;;;;;3.57;2.97;;;;;;;4.29;66.20;101042.28;5091442;28;20202;-74
2022/01/18 10:07:33;;;;;;;7.60;2.67;;;;;;;4.34;65.52;101025.47;5090864;28;20218;-74
2022/01/18 10:10:01;;;;;;;7.80;2.57;;;;;;;4.30;64.81;101017.50;5091093;28;20194;-74
2022/01/18 10:12:28;;;;;;;6.53;3.00;;;;;;;4.41;64.97;101034.38;5090760;28;20230;-74
2022/01/18 10:14:57;;;;;;;4.47;2.67;;;;;;;4.61;62.00;101056.00;5091117;28;20206;-74
2022/01/18 10:17:30;;;;;;;12.33;2.53;;;;;;;4.65;62.08;101039.94;5090464;28;20194;-73
2022/01/18 10:20:03;;;;;;;2.60;2.37;;;;;;;4.77;62.49;101040.63;5090852;28;20669;-74
2022/01/18 10:22:40;;;;;;;4.23;2.77;;;;;;;4.77;60.19;101063.72;5090689;28;20194;-74
2022/01/18 10:25:14;;;;;;;3.10;2.40;;;;;;;4.91;59.79;101057.66;5091195;28;20649;-75
2022/01/18 10:27:41;;;;;;;12.47;4.57;;;;;;;4.77;59.47;101040.63;5090886;28;20204;-75
2022/01/18 10:30:20;;;;;;;10.43;3.13;;;;;;;4.89;57.78;101049.84;5094527;28;20198;-74
2022/01/18 10:33:07;;;;;;;6.20;3.93;;;;;;;4.93;59.10;101048.31;5094091;28;20233;-74
2022/01/18 10:35:35;;;;;;;6.40;3.40;;;;;;;5.00;59.70;101063.25;5095205;28;20230;-74
2022/01/18 10:38:16;;;;;;;5.47;2.67;;;;;;;4.97;58.43;101043.44;5095006;28;20259;-74
2022/01/18 10:40:43;;;;;;;5.47;3.80;;;;;;;5.02;57.22;101056.53;5094487;28;20201;-74
2022/01/18 10:43:23;;;;;;;9.23;3.00;;;;;;;5.13;55.66;101065.69;5094465;28;20195;-75
2022/01/18 10:45:50;;;;;;;5.97;2.00;;;;;;;4.97;56.18;101035.72;5094302;28;20198;-74
2022/01/18 10:48:17;;;;;;;8.80;3.43;;;;;;;5.15;56.68;101058.03;5093834;28;20273;-78
2022/01/18 10:50:47;;;;;;;16.17;9.23;;;;;;;5.24;55.99;101064.56;5094415;28;20576;-75
2022/01/18 10:53:15;;;;;;;15.23;5.00;;;;;;;5.28;56.29;101066.47;5084670;28;20695;-76
2022/01/18 10:55:43;;;;;;;4.10;2.67;;;;;;;5.24;56.25;101059.41;5094567;28;20217;-76
2022/01/18 10:58:11;;;;;;;12.47;3.67;;;;;;;5.32;56.46;101042.69;5094282;28;20198;-77
2022/01/18 11:00:39;;;;;;;3.83;3.07;;;;;;;5.34;58.15;101061.66;5094004;28;20279;-76
2022/01/18 11:03:06;;;;;;;4.87;2.90;;;;;;;5.34;58.36;101076.19;5085104;28;20285;-76
2022/01/18 11:05:35;;;;;;;10.37;2.90;;;;;;;5.24;58.49;101072.28;5094210;28;20222;-75
2022/01/18 11:08:06;;;;;;;5.87;2.73;;;;;;;5.30;58.35;101075.16;5093469;28;20190;-75
2022/01/18 11:10:35;;;;;;;4.30;2.93;;;;;;;5.28;59.39;101079.31;5093608;28;20198;-76
2022/01/18 11:13:05;;;;;;;5.97;2.63;;;;;;;5.44;61.70;101073.28;5100715;28;20218;-74
2022/01/18 11:15:33;;;;;;;5.17;3.60;;;;;;;5.46;60.29;101077.69;5102298;28;20202;-75
2022/01/18 11:18:03;;;;;;;7.60;3.27;;;;;;;5.42;60.46;101077.47;5106271;28;20197;-75
2022/01/18 11:20:33;;;;;;;3.03;2.80;;;;;;;5.46;60.83;101080.25;5114149;28;20213;-76
2022/01/18 11:23:00;;;;;;;7.10;2.73;;;;;;;5.33;62.18;101033.28;5114079;28;20668;-76
2022/01/18 11:25:29;;;;;;;10.30;2.63;;;;;;;5.57;59.17;101069.63;5113883;28;20190;-76
2022/01/18 11:27:58;;;;;;;7.07;3.07;;;;;;;5.08;57.52;100990.00;5114229;28;20225;-75
2022/01/18 11:30:29;;;;;;;6.63;3.60;;;;;;;5.58;58.41;101066.25;5113815;28;20194;-76
2022/01/18 11:32:58;;;;;;;9.90;5.03;;;;;;;5.54;58.02;101067.78;5113769;28;20254;-75
2022/01/18 11:35:36;;;;;;;12.03;3.90;;;;;;;5.53;58.35;101054.88;5113773;28;20189;-76
2022/01/18 11:38:10;;;;;;;7.27;3.63;;;;;;;5.67;59.19;101074.47;5103418;28;20680;-75
2022/01/18 11:40:46;;;;;;;4.13;2.93;;;;;;;5.57;58.71;101065.38;5099314;28;20190;-76
2022/01/18 11:43:14;;;;;;;2.80;2.33;;;;;;;5.56;59.58;101075.59;5101455;28;20611;-76
2022/01/18 11:45:43;;;;;;;9.03;4.27;;;;;;;5.40;61.39;101000.25;5103656;28;20197;-79
2022/01/18 11:48:15;;;;;;;4.83;2.90;;;;;;;5.97;62.11;101089.75;5103361;28;20213;-75
2022/01/18 11:50:46;;;;;;;4.63;3.10;;;;;;;5.92;61.43;101080.06;5103260;28;20196;-76
2022/01/18 11:53:37;;;;;;;4.70;2.77;;;;;;;6.01;60.29;101095.06;5113410;28;20225;-76
2022/01/18 11:56:07;;;;;;;12.57;2.93;;;;;;;5.91;60.34;101042.25;5103529;28;20196;-77
2022/01/18 11:58:34;;;;;;;13.50;4.73;;;;;;;6.27;60.57;101063.75;5102758;28;20681;-75
2022/01/18 12:01:03;;;;;;;4.43;3.17;;;;;;;6.16;60.07;101090.66;5101709;28;20201;-78
2022/01/18 12:03:32;;;;;;;3.87;3.07;;;;;;;6.26;60.29;101087.72;5102587;28;20285;-77
2022/01/18 12:06:00;;;;;;;7.13;3.43;;;;;;;6.34;60.29;101089.88;5103278;28;20704;-78
2022/01/18 12:08:36;;;;;;;3.23;2.83;;;;;;;6.21;60.66;101078.88;5099490;28;20190;-77
2022/01/18 12:11:06;;;;;;;11.57;4.53;;;;;;;6.23;60.52;101070.44;5101170;28;20584;-78
2022/01/18 12:13:39;;;;;;;7.50;3.80;;;;;;;6.21;60.67;101069.47;5102014;28;20232;-77
2022/01/18 12:16:12;;;;;;;6.10;3.27;;;;;;;6.12;60.23;101068.13;5103310;28;20638;-77
2022/01/18 12:18:52;;;;;;;7.40;3.87;;;;;;;6.02;61.14;101069.41;5102148;28;20194;-78
2022/01/18 12:21:22;;;;;;;3.03;2.73;;;;;;;5.81;61.86;101058.91;5102079;28;20278;-77
2022/01/18 12:23:49;;;;;;;3.87;2.43;;;;;;;5.76;62.85;101057.78;5098755;28;20198;-78
2022/01/18 12:26:32;;;;;;;3.43;2.67;;;;;;;5.94;62.69;101068.13;5101937;28;20202;-80
2022/01/18 12:29:21;;;;;;;5.87;2.60;;;;;;;5.94;63.15;101057.84;5101291;28;20259;-78